sensor_id;sensor_type;location;lat;lon;timestamp;P1;durP1;ratioP1;P2;durP2;ratioP2
85051;SDS011;75382;46.706;12.340;2024-01-15T00:00:26;9.15;;;2.45;;
85051;SDS011;75382;46.706;12.340;2024-01-15T00:01:25;7.3374999999999995;;;2.25;;
85051;SDS011;75382;46.706;12.340;2024-01-15T00:02:25;12.65;;;2.925;;
85051;SDS011;75382;46.706;12.340;2024-01-15T00:03:25;11.7;;;3.2375000000000003;;
85051;SDS011;75382;46.706;12.340;2024-01-15T00:04:25;7.1499999999999995;;;2.5125;;
85051;SDS011;75382;46.706;12.340;2024-01-15T00:05:25;9.2625;;;2.925;;
85051;SDS011;75382;46.706;12.340;2024-01-15T00:06:28;10.1375;;;2.7125000000000004;;
85051;SDS011;75382;46.706;12.340;2024-01-15T00:07:25;7.6;;;2.3249999999999997;;
85051;SDS011;75382;46.706;12.340;2024-01-15T00:08:25;7.3;;;2.2625;;
85051;SDS011;75382;46.706;12.340;2024-01-15T00:09:28;9.3875;;;2.1875;;
85051;SDS011;75382;46.706;12.340;2024-01-15T00:10:25;7.35;;;2.075;;
85051;SDS011;75382;46.706;12.340;2024-01-15T00:11:33;7.0249999999999995;;;2.0;;
85051;SDS011;75382;46.706;12.340;2024-01-15T00:12:25;7.6875;;;2.425;;
85051;SDS011;75382;46.706;12.340;2024-01-15T00:13:25;8.612499999999999;;;1.825;;
85051;SDS011;75382;46.706;12.340;2024-01-15T00:14:25;7.775;;;2.675;;
85051;SDS011;75382;46.706;12.340;2024-01-15T00:15:27;8.3125;;;2.525;;
85051;SDS011;75382;46.706;12.340;2024-01-15T00:16:25;8.6375;;;2.4875;;
85051;SDS011;75382;46.706;12.340;2024-01-15T00:17:25;6.862500000000001;;;2.3499999999999996;;
85051;SDS011;75382;46.706;12.340;2024-01-15T00:18:25;8.8125;;;2.55;;
85051;SDS011;75382;46.706;12.340;2024-01-15T00:19:27;11.4875;;;2.9375;;
85051;SDS011;75382;46.706;12.340;2024-01-15T00:20:25;9.0625;;;2.3875;;
85051;SDS011;75382;46.706;12.340;2024-01-15T00:21:25;9.9625;;;2.175;;
85051;SDS011;75382;46.706;12.340;2024-01-15T00:22:28;8.0;;;2.4625;;
85051;SDS011;75382;46.706;12.340;2024-01-15T00:23:25;9.2375;;;2.4625000000000004;;
85051;SDS011;75382;46.706;12.340;2024-01-15T00:24:25;8.8375;;;2.0374999999999996;;
85051;SDS011;75382;46.706;12.340;2024-01-15T00:25:25;6.1125;;;1.85;;
85051;SDS011;75382;46.706;12.340;2024-01-15T00:26:26;7.800000000000001;;;2.425;;
85051;SDS011;75382;46.706;12.340;2024-01-15T00:27:25;6.4625;;;1.975;;
85051;SDS011;75382;46.706;12.340;2024-01-15T00:28:26;7.0125;;;2.1;;
85051;SDS011;75382;46.706;12.340;2024-01-15T00:29:25;7.699999999999999;;;2.05;;
85051;SDS011;75382;46.706;12.340;2024-01-15T00:30:28;6.875;;;2.2125;;
85051;SDS011;75382;46.706;12.340;2024-01-15T00:31:26;7.7625;;;2.075;;
85051;SDS011;75382;46.706;12.340;2024-01-15T00:32:25;6.5375;;;2.075;;
85051;SDS011;75382;46.706;12.340;2024-01-15T00:33:28;9.45;;;2.6499999999999995;;
85051;SDS011;75382;46.706;12.340;2024-01-15T00:34:26;7.125;;;2.2375;;
85051;SDS011;75382;46.706;12.340;2024-01-15T00:35:25;10.5125;;;2.5374999999999996;;
85051;SDS011;75382;46.706;12.340;2024-01-15T00:36:25;7.3875;;;2.45;;
85051;SDS011;75382;46.706;12.340;2024-01-15T00:37:25;7.6;;;2.9875;;
85051;SDS011;75382;46.706;12.340;2024-01-15T00:38:25;9.1125;;;2.6375;;
85051;SDS011;75382;46.706;12.340;2024-01-15T00:39:26;6.675;;;2.1625;;
85051;SDS011;75382;46.706;12.340;2024-01-15T00:40:28;7.5;;;2.65;;
85051;SDS011;75382;46.706;12.340;2024-01-15T00:41:28;8.825;;;2.3625;;
85051;SDS011;75382;46.706;12.340;2024-01-15T00:42:26;8.9875;;;2.575;;
85051;SDS011;75382;46.706;12.340;2024-01-15T00:43:25;8.5375;;;2.55;;
85051;SDS011;75382;46.706;12.340;2024-01-15T00:44:25;9.774999999999999;;;2.525;;
85051;SDS011;75382;46.706;12.340;2024-01-15T00:45:25;11.012500000000001;;;2.35;;
85051;SDS011;75382;46.706;12.340;2024-01-15T00:46:25;8.212499999999999;;;2.3;;
85051;SDS011;75382;46.706;12.340;2024-01-15T00:47:25;7.7625;;;2.0;;
85051;SDS011;75382;46.706;12.340;2024-01-15T00:48:28;10.375;;;3.0125;;
85051;SDS011;75382;46.706;12.340;2024-01-15T00:49:26;9.662499999999998;;;2.45;;
85051;SDS011;75382;46.706;12.340;2024-01-15T00:50:25;9.462499999999999;;;2.3875;;
85051;SDS011;75382;46.706;12.340;2024-01-15T00:51:25;8.4875;;;2.0625;;
85051;SDS011;75382;46.706;12.340;2024-01-15T00:52:25;8.3625;;;2.25;;
85051;SDS011;75382;46.706;12.340;2024-01-15T00:53:25;11.725;;;2.2375;;
85051;SDS011;75382;46.706;12.340;2024-01-15T00:54:26;7.300000000000001;;;2.1000000000000005;;
85051;SDS011;75382;46.706;12.340;2024-01-15T00:55:26;8.7875;;;2.0375;;
85051;SDS011;75382;46.706;12.340;2024-01-15T00:56:25;7.0875;;;2.0625;;
85051;SDS011;75382;46.706;12.340;2024-01-15T00:57:26;7.9625;;;1.7875;;
85051;SDS011;75382;46.706;12.340;2024-01-15T00:58:25;10.1125;;;2.575;;
85051;SDS011;75382;46.706;12.340;2024-01-15T00:59:25;7.5;;;2.0250000000000004;;
85051;SDS011;75382;46.706;12.340;2024-01-15T01:00:25;9.575;;;1.9125;;
85051;SDS011;75382;46.706;12.340;2024-01-15T01:01:25;7.8875;;;2.1500000000000004;;
85051;SDS011;75382;46.706;12.340;2024-01-15T01:02:25;5.95;;;2.0625;;
85051;SDS011;75382;46.706;12.340;2024-01-15T01:03:25;8.4625;;;1.825;;
85051;SDS011;75382;46.706;12.340;2024-01-15T01:04:25;10.4375;;;1.4875;;
85051;SDS011;75382;46.706;12.340;2024-01-15T01:05:25;6.35;;;1.5375;;
85051;SDS011;75382;46.706;12.340;2024-01-15T01:06:25;4.875;;;1.1500000000000001;;
85051;SDS011;75382;46.706;12.340;2024-01-15T01:07:25;5.225;;;1.2000000000000002;;
85051;SDS011;75382;46.706;12.340;2024-01-15T01:08:25;5.5;;;1.2125;;
85051;SDS011;75382;46.706;12.340;2024-01-15T01:09:26;8.95;;;1.6624999999999999;;
85051;SDS011;75382;46.706;12.340;2024-01-15T01:10:28;8.5125;;;2.4250000000000003;;
85051;SDS011;75382;46.706;12.340;2024-01-15T01:11:25;5.75;;;1.7;;
85051;SDS011;75382;46.706;12.340;2024-01-15T01:12:26;6.2;;;1.8375;;
85051;SDS011;75382;46.706;12.340;2024-01-15T01:13:25;6.625;;;1.7625000000000002;;
85051;SDS011;75382;46.706;12.340;2024-01-15T01:14:25;6.65;;;2.0125;;
85051;SDS011;75382;46.706;12.340;2024-01-15T01:15:25;5.8125;;;1.3375;;
85051;SDS011;75382;46.706;12.340;2024-01-15T01:16:28;6.862499999999999;;;1.6500000000000001;;
85051;SDS011;75382;46.706;12.340;2024-01-15T01:17:25;6.275;;;1.7625;;
85051;SDS011;75382;46.706;12.340;2024-01-15T01:18:25;6.6499999999999995;;;2.0;;
85051;SDS011;75382;46.706;12.340;2024-01-15T01:19:25;8.45;;;1.9500000000000002;;
85051;SDS011;75382;46.706;12.340;2024-01-15T01:20:26;8.5125;;;1.7625000000000002;;
85051;SDS011;75382;46.706;12.340;2024-01-15T01:21:26;8.45;;;1.8375;;
85051;SDS011;75382;46.706;12.340;2024-01-15T01:22:28;5.25;;;1.7125000000000001;;
85051;SDS011;75382;46.706;12.340;2024-01-15T01:23:25;6.112500000000001;;;1.5875;;
85051;SDS011;75382;46.706;12.340;2024-01-15T01:24:26;7.1375;;;1.8625;;
85051;SDS011;75382;46.706;12.340;2024-01-15T01:25:25;7.612500000000001;;;1.6125;;
85051;SDS011;75382;46.706;12.340;2024-01-15T01:26:25;6.2875;;;1.5;;
85051;SDS011;75382;46.706;12.340;2024-01-15T01:27:26;9.725;;;1.7874999999999999;;
85051;SDS011;75382;46.706;12.340;2024-01-15T01:28:27;6.0125;;;1.6124999999999998;;
85051;SDS011;75382;46.706;12.340;2024-01-15T01:29:26;6.0625;;;1.3875;;
85051;SDS011;75382;46.706;12.340;2024-01-15T01:30:25;6.362500000000001;;;1.3625;;
85051;SDS011;75382;46.706;12.340;2024-01-15T01:31:25;7.437499999999999;;;1.5875;;
85051;SDS011;75382;46.706;12.340;2024-01-15T01:32:28;5.487500000000001;;;1.2750000000000001;;
85051;SDS011;75382;46.706;12.340;2024-01-15T01:33:28;7.775;;;1.8625;;
85051;SDS011;75382;46.706;12.340;2024-01-15T01:34:26;6.2375;;;1.725;;
85051;SDS011;75382;46.706;12.340;2024-01-15T01:35:26;7.15;;;1.7375;;
85051;SDS011;75382;46.706;12.340;2024-01-15T01:36:25;9.6375;;;2.525;;
85051;SDS011;75382;46.706;12.340;2024-01-15T01:37:25;8.837499999999999;;;2.4125;;
85051;SDS011;75382;46.706;12.340;2024-01-15T01:38:25;12.450000000000001;;;2.9875;;
85051;SDS011;75382;46.706;12.340;2024-01-15T01:39:25;11.737499999999999;;;2.7625;;
85051;SDS011;75382;46.706;12.340;2024-01-15T01:40:28;8.649999999999999;;;2.2375;;
85051;SDS011;75382;46.706;12.340;2024-01-15T01:41:25;7.5375;;;1.6875;;
85051;SDS011;75382;46.706;12.340;2024-01-15T01:42:25;6.9;;;1.7375;;
85051;SDS011;75382;46.706;12.340;2024-01-15T01:43:25;6.2125;;;1.775;;
85051;SDS011;75382;46.706;12.340;2024-01-15T01:44:25;7.7;;;2.0;;
85051;SDS011;75382;46.706;12.340;2024-01-15T01:45:25;6.925;;;2.075;;
85051;SDS011;75382;46.706;12.340;2024-01-15T01:46:27;6.199999999999999;;;1.725;;
85051;SDS011;75382;46.706;12.340;2024-01-15T01:47:26;7.112500000000001;;;1.2999999999999998;;
85051;SDS011;75382;46.706;12.340;2024-01-15T01:48:25;6.65;;;2.0375;;
85051;SDS011;75382;46.706;12.340;2024-01-15T01:49:25;6.6;;;1.4375;;
85051;SDS011;75382;46.706;12.340;2024-01-15T01:50:25;7.3125;;;1.7625000000000002;;
85051;SDS011;75382;46.706;12.340;2024-01-15T01:51:25;6.425;;;1.2375;;
85051;SDS011;75382;46.706;12.340;2024-01-15T01:52:25;6.2;;;1.65;;
85051;SDS011;75382;46.706;12.340;2024-01-15T01:53:26;5.9875;;;1.625;;
85051;SDS011;75382;46.706;12.340;2024-01-15T01:54:26;7.275;;;1.425;;
85051;SDS011;75382;46.706;12.340;2024-01-15T01:55:26;7.3999999999999995;;;1.9;;
85051;SDS011;75382;46.706;12.340;2024-01-15T01:56:28;6.8375;;;1.7874999999999999;;
85051;SDS011;75382;46.706;12.340;2024-01-15T01:57:25;6.5125;;;1.6125;;
85051;SDS011;75382;46.706;12.340;2024-01-15T01:58:26;9.5875;;;2.2375;;
85051;SDS011;75382;46.706;12.340;2024-01-15T01:59:26;6.525;;;1.675;;
85051;SDS011;75382;46.706;12.340;2024-01-15T02:00:25;6.3;;;1.5125;;
85051;SDS011;75382;46.706;12.340;2024-01-15T02:01:25;8.2125;;;1.3624999999999998;;
85051;SDS011;75382;46.706;12.340;2024-01-15T02:02:25;7.462499999999999;;;1.5;;
85051;SDS011;75382;46.706;12.340;2024-01-15T02:03:26;6.225;;;1.6124999999999998;;
85051;SDS011;75382;46.706;12.340;2024-01-15T02:04:25;6.3375;;;1.5;;
85051;SDS011;75382;46.706;12.340;2024-01-15T02:05:26;6.2125;;;1.35;;
85051;SDS011;75382;46.706;12.340;2024-01-15T02:06:28;7.3125;;;1.4500000000000002;;
85051;SDS011;75382;46.706;12.340;2024-01-15T02:07:25;6.625;;;1.3125;;
85051;SDS011;75382;46.706;12.340;2024-01-15T02:08:25;6.025;;;1.2125;;
85051;SDS011;75382;46.706;12.340;2024-01-15T02:09:25;6.1625;;;1.55;;
85051;SDS011;75382;46.706;12.340;2024-01-15T02:10:25;6.8625;;;1.3375;;
85051;SDS011;75382;46.706;12.340;2024-01-15T02:11:25;5.9375;;;1.4625;;
85051;SDS011;75382;46.706;12.340;2024-01-15T02:12:25;5.9125;;;1.3125;;
85051;SDS011;75382;46.706;12.340;2024-01-15T02:13:25;8.4625;;;1.5875;;
85051;SDS011;75382;46.706;12.340;2024-01-15T02:14:25;5.375;;;1.1624999999999999;;
85051;SDS011;75382;46.706;12.340;2024-01-15T02:15:25;6.05;;;1.4125;;
85051;SDS011;75382;46.706;12.340;2024-01-15T02:16:28;6.262500000000001;;;1.2874999999999999;;
85051;SDS011;75382;46.706;12.340;2024-01-15T02:17:25;5.475;;;1.375;;
85051;SDS011;75382;46.706;12.340;2024-01-15T02:18:25;6.887499999999999;;;1.375;;
85051;SDS011;75382;46.706;12.340;2024-01-15T02:19:25;6.0625;;;1.0625;;
85051;SDS011;75382;46.706;12.340;2024-01-15T02:20:26;4.824999999999999;;;1.1;;
85051;SDS011;75382;46.706;12.340;2024-01-15T02:21:29;7.975;;;1.325;;
85051;SDS011;75382;46.706;12.340;2024-01-15T02:22:25;6.425000000000001;;;1.225;;
85051;SDS011;75382;46.706;12.340;2024-01-15T02:23:28;5.6625;;;1.25;;
85051;SDS011;75382;46.706;12.340;2024-01-15T02:24:25;5.949999999999999;;;1.425;;
85051;SDS011;75382;46.706;12.340;2024-01-15T02:25:28;9.625;;;1.325;;
85051;SDS011;75382;46.706;12.340;2024-01-15T02:26:25;7.6125;;;1.6875;;
85051;SDS011;75382;46.706;12.340;2024-01-15T02:27:25;5.7;;;1.225;;
85051;SDS011;75382;46.706;12.340;2024-01-15T02:28:25;6.375;;;1.4;;
85051;SDS011;75382;46.706;12.340;2024-01-15T02:29:25;6.0625;;;1.425;;
85051;SDS011;75382;46.706;12.340;2024-01-15T02:30:25;6.425000000000001;;;1.475;;
85051;SDS011;75382;46.706;12.340;2024-01-15T02:31:25;5.762499999999999;;;1.3125;;
85051;SDS011;75382;46.706;12.340;2024-01-15T02:32:25;5.875;;;1.2125000000000001;;
85051;SDS011;75382;46.706;12.340;2024-01-15T02:33:25;5.237499999999999;;;1.0375;;
85051;SDS011;75382;46.706;12.340;2024-01-15T02:34:25;5.5;;;1.0875;;
85051;SDS011;75382;46.706;12.340;2024-01-15T02:35:28;4.7749999999999995;;;1.4625;;
85051;SDS011;75382;46.706;12.340;2024-01-15T02:36:25;5.85;;;1.2750000000000001;;
85051;SDS011;75382;46.706;12.340;2024-01-15T02:37:25;7.137499999999999;;;1.5875;;
85051;SDS011;75382;46.706;12.340;2024-01-15T02:38:25;7.5;;;1.8375;;
85051;SDS011;75382;46.706;12.340;2024-01-15T02:39:26;6.875;;;1.65;;
85051;SDS011;75382;46.706;12.340;2024-01-15T02:40:25;4.975;;;1.1;;
85051;SDS011;75382;46.706;12.340;2024-01-15T02:41:25;8.25;;;1.7000000000000002;;
85051;SDS011;75382;46.706;12.340;2024-01-15T02:42:26;6.625;;;1.7625;;
85051;SDS011;75382;46.706;12.340;2024-01-15T02:43:25;7.65;;;1.5875;;
85051;SDS011;75382;46.706;12.340;2024-01-15T02:44:28;5.324999999999999;;;1.3624999999999998;;
85051;SDS011;75382;46.706;12.340;2024-01-15T02:45:25;7.45;;;1.75;;
85051;SDS011;75382;46.706;12.340;2024-01-15T02:46:25;5.112500000000001;;;1.25;;
85051;SDS011;75382;46.706;12.340;2024-01-15T02:47:25;7.175000000000001;;;1.375;;
85051;SDS011;75382;46.706;12.340;2024-01-15T02:48:25;5.0625;;;0.9125000000000001;;
85051;SDS011;75382;46.706;12.340;2024-01-15T02:49:26;5.487500000000001;;;1.1875;;
85051;SDS011;75382;46.706;12.340;2024-01-15T02:50:28;4.775;;;1.1124999999999998;;
85051;SDS011;75382;46.706;12.340;2024-01-15T02:51:28;7.6;;;1.5375;;
85051;SDS011;75382;46.706;12.340;2024-01-15T02:52:25;5.0375;;;1.2625;;
85051;SDS011;75382;46.706;12.340;2024-01-15T02:53:25;5.95;;;1.3;;
85051;SDS011;75382;46.706;12.340;2024-01-15T02:54:25;5.6875;;;1.3375;;
85051;SDS011;75382;46.706;12.340;2024-01-15T02:55:29;5.362500000000001;;;1.15;;
85051;SDS011;75382;46.706;12.340;2024-01-15T02:56:25;5.65;;;1.475;;
85051;SDS011;75382;46.706;12.340;2024-01-15T02:57:25;6.6875;;;1.4;;
85051;SDS011;75382;46.706;12.340;2024-01-15T02:58:25;7.074999999999999;;;1.5625;;
85051;SDS011;75382;46.706;12.340;2024-01-15T02:59:25;5.55;;;1.2125000000000001;;
85051;SDS011;75382;46.706;12.340;2024-01-15T03:00:25;6.15;;;1.5125;;
85051;SDS011;75382;46.706;12.340;2024-01-15T03:01:25;6.012499999999999;;;1.4375;;
85051;SDS011;75382;46.706;12.340;2024-01-15T03:02:25;4.7875000000000005;;;1.25;;
85051;SDS011;75382;46.706;12.340;2024-01-15T03:03:28;6.425;;;1.5;;
85051;SDS011;75382;46.706;12.340;2024-01-15T03:04:25;5.7125;;;1.5875;;
85051;SDS011;75382;46.706;12.340;2024-01-15T03:05:30;6.0875;;;1.3375;;
85051;SDS011;75382;46.706;12.340;2024-01-15T03:06:25;5.7;;;1.65;;
85051;SDS011;75382;46.706;12.340;2024-01-15T03:07:25;6.6125;;;2.3125;;
85051;SDS011;75382;46.706;12.340;2024-01-15T03:08:25;8.075;;;2.8249999999999997;;
85051;SDS011;75382;46.706;12.340;2024-01-15T03:09:25;7.0125;;;2.2874999999999996;;
85051;SDS011;75382;46.706;12.340;2024-01-15T03:10:25;8.4625;;;2.15;;
85051;SDS011;75382;46.706;12.340;2024-01-15T03:11:28;6.875;;;1.8624999999999998;;
85051;SDS011;75382;46.706;12.340;2024-01-15T03:12:25;8.225000000000001;;;1.7375;;
85051;SDS011;75382;46.706;12.340;2024-01-15T03:13:25;5.825;;;1.7625;;
85051;SDS011;75382;46.706;12.340;2024-01-15T03:14:26;6.1375;;;1.4875;;
85051;SDS011;75382;46.706;12.340;2024-01-15T03:15:25;6.0625;;;1.6375000000000002;;
85051;SDS011;75382;46.706;12.340;2024-01-15T03:16:25;5.7625;;;1.3125;;
85051;SDS011;75382;46.706;12.340;2024-01-15T03:17:26;5.0875;;;1.3624999999999998;;
85051;SDS011;75382;46.706;12.340;2024-01-15T03:18:25;4.7125;;;1.2625;;
85051;SDS011;75382;46.706;12.340;2024-01-15T03:19:25;5.4;;;1.2125;;
85051;SDS011;75382;46.706;12.340;2024-01-15T03:20:25;5.425;;;1.475;;
85051;SDS011;75382;46.706;12.340;2024-01-15T03:21:25;6.9750000000000005;;;1.4375;;
85051;SDS011;75382;46.706;12.340;2024-01-15T03:22:25;7.5625;;;1.0625;;
85051;SDS011;75382;46.706;12.340;2024-01-15T03:23:25;5.9125;;;1.1;;
85051;SDS011;75382;46.706;12.340;2024-01-15T03:24:25;5.5874999999999995;;;1.25;;
85051;SDS011;75382;46.706;12.340;2024-01-15T03:25:25;6.175000000000001;;;1.5375;;
85051;SDS011;75382;46.706;12.340;2024-01-15T03:26:28;5.875;;;1.275;;
85051;SDS011;75382;46.706;12.340;2024-01-15T03:27:26;5.45;;;1.2125;;
85051;SDS011;75382;46.706;12.340;2024-01-15T03:28:26;6.25;;;1.3375000000000001;;
85051;SDS011;75382;46.706;12.340;2024-01-15T03:29:25;5.35;;;1.4874999999999998;;
85051;SDS011;75382;46.706;12.340;2024-01-15T03:30:25;6.637499999999999;;;1.5375;;
85051;SDS011;75382;46.706;12.340;2024-01-15T03:31:25;5.725;;;1.3125;;
85051;SDS011;75382;46.706;12.340;2024-01-15T03:32:28;5.074999999999999;;;1.2375;;
85051;SDS011;75382;46.706;12.340;2024-01-15T03:33:28;6.4125;;;1.725;;
85051;SDS011;75382;46.706;12.340;2024-01-15T03:34:25;5.800000000000001;;;1.1749999999999998;;
85051;SDS011;75382;46.706;12.340;2024-01-15T03:35:29;5.5375;;;1.5125;;
85051;SDS011;75382;46.706;12.340;2024-01-15T03:36:25;7.1625;;;1.6;;
85051;SDS011;75382;46.706;12.340;2024-01-15T03:37:25;8.525;;;1.8499999999999999;;
85051;SDS011;75382;46.706;12.340;2024-01-15T03:38:27;5.6875;;;1.2875;;
85051;SDS011;75382;46.706;12.340;2024-01-15T03:39:25;5.575;;;1.475;;
85051;SDS011;75382;46.706;12.340;2024-01-15T03:40:25;6.175000000000001;;;1.375;;
85051;SDS011;75382;46.706;12.340;2024-01-15T03:41:25;6.975;;;1.475;;
85051;SDS011;75382;46.706;12.340;2024-01-15T03:42:25;6.3375;;;1.8375;;
85051;SDS011;75382;46.706;12.340;2024-01-15T03:43:25;6.6;;;1.5;;
85051;SDS011;75382;46.706;12.340;2024-01-15T03:44:26;6.35;;;1.5375;;
85051;SDS011;75382;46.706;12.340;2024-01-15T03:45:25;6.0;;;1.25;;
85051;SDS011;75382;46.706;12.340;2024-01-15T03:46:25;5.525;;;1.4375;;
85051;SDS011;75382;46.706;12.340;2024-01-15T03:47:26;6.35;;;1.65;;
85051;SDS011;75382;46.706;12.340;2024-01-15T03:48:25;5.1875;;;1.2750000000000001;;
85051;SDS011;75382;46.706;12.340;2024-01-15T03:49:26;6.4625;;;1.5;;
85051;SDS011;75382;46.706;12.340;2024-01-15T03:50:25;6.887499999999999;;;1.7000000000000002;;
85051;SDS011;75382;46.706;12.340;2024-01-15T03:51:25;5.5125;;;1.3875;;
85051;SDS011;75382;46.706;12.340;2024-01-15T03:52:25;5.9;;;1.2375;;
85051;SDS011;75382;46.706;12.340;2024-01-15T03:53:31;7.2875;;;1.2;;
85051;SDS011;75382;46.706;12.340;2024-01-15T03:54:27;5.65;;;1.1375;;
85051;SDS011;75382;46.706;12.340;2024-01-15T03:55:25;6.4625;;;2.0;;
85051;SDS011;75382;46.706;12.340;2024-01-15T03:56:25;6.7625;;;2.1125;;
85051;SDS011;75382;46.706;12.340;2024-01-15T03:57:27;5.625;;;1.4;;
85051;SDS011;75382;46.706;12.340;2024-01-15T03:58:25;6.7875;;;1.775;;
85051;SDS011;75382;46.706;12.340;2024-01-15T03:59:26;6.05;;;1.5875;;
85051;SDS011;75382;46.706;12.340;2024-01-15T04:00:26;6.1625;;;1.2375;;
85051;SDS011;75382;46.706;12.340;2024-01-15T04:01:25;5.8625;;;1.5499999999999998;;
85051;SDS011;75382;46.706;12.340;2024-01-15T04:02:28;6.75;;;1.3125;;
85051;SDS011;75382;46.706;12.340;2024-01-15T04:03:25;9.0;;;1.9749999999999999;;
85051;SDS011;75382;46.706;12.340;2024-01-15T04:04:26;5.625;;;1.5;;
85051;SDS011;75382;46.706;12.340;2024-01-15T04:05:26;6.35;;;1.8499999999999999;;
85051;SDS011;75382;46.706;12.340;2024-01-15T04:06:25;6.0625;;;1.65;;
85051;SDS011;75382;46.706;12.340;2024-01-15T04:07:28;5.625;;;1.475;;
85051;SDS011;75382;46.706;12.340;2024-01-15T04:08:25;7.875;;;2.275;;
85051;SDS011;75382;46.706;12.340;2024-01-15T04:09:31;7.8500000000000005;;;2.425;;
85051;SDS011;75382;46.706;12.340;2024-01-15T04:10:45;9.775;;;2.9;;
85051;SDS011;75382;46.706;12.340;2024-01-15T04:11:45;8.3125;;;2.5;;
85051;SDS011;75382;46.706;12.340;2024-01-15T04:12:46;8.024999999999999;;;2.375;;
85051;SDS011;75382;46.706;12.340;2024-01-15T04:13:45;9.9875;;;2.8625;;
85051;SDS011;75382;46.706;12.340;2024-01-15T04:14:45;10.3125;;;2.6750000000000003;;
85051;SDS011;75382;46.706;12.340;2024-01-15T04:15:45;9.799999999999999;;;2.9124999999999996;;
85051;SDS011;75382;46.706;12.340;2024-01-15T04:16:45;9.712499999999999;;;3.15;;
85051;SDS011;75382;46.706;12.340;2024-01-15T04:17:46;7.85;;;2.7375;;
85051;SDS011;75382;46.706;12.340;2024-01-15T04:18:45;7.9624999999999995;;;3.1625;;
85051;SDS011;75382;46.706;12.340;2024-01-15T04:19:45;9.1875;;;2.3875;;
85051;SDS011;75382;46.706;12.340;2024-01-15T04:20:45;7.9625;;;2.7375;;
85051;SDS011;75382;46.706;12.340;2024-01-15T04:21:45;7.1125;;;2.2625;;
85051;SDS011;75382;46.706;12.340;2024-01-15T04:22:45;6.4375;;;2.0875;;
85051;SDS011;75382;46.706;12.340;2024-01-15T04:23:45;7.4125;;;2.2;;
85051;SDS011;75382;46.706;12.340;2024-01-15T04:24:50;10.0875;;;2.25;;
85051;SDS011;75382;46.706;12.340;2024-01-15T04:25:46;7.4625;;;2.2875;;
85051;SDS011;75382;46.706;12.340;2024-01-15T04:26:46;7.1875;;;2.125;;
85051;SDS011;75382;46.706;12.340;2024-01-15T04:27:45;6.5;;;1.9875;;
85051;SDS011;75382;46.706;12.340;2024-01-15T04:28:48;8.975;;;2.575;;
85051;SDS011;75382;46.706;12.340;2024-01-15T04:29:45;7.6125;;;1.875;;
85051;SDS011;75382;46.706;12.340;2024-01-15T04:30:47;8.5375;;;2.9625;;
85051;SDS011;75382;46.706;12.340;2024-01-15T04:31:45;6.799999999999999;;;2.3;;
85051;SDS011;75382;46.706;12.340;2024-01-15T04:32:45;7.6125;;;2.025;;
85051;SDS011;75382;46.706;12.340;2024-01-15T04:33:45;8.2125;;;2.4375;;
85051;SDS011;75382;46.706;12.340;2024-01-15T04:34:45;8.05;;;2.8499999999999996;;
85051;SDS011;75382;46.706;12.340;2024-01-15T04:35:45;8.525;;;2.4875;;
85051;SDS011;75382;46.706;12.340;2024-01-15T04:36:45;8.325;;;2.525;;
85051;SDS011;75382;46.706;12.340;2024-01-15T04:37:45;7.487500000000001;;;2.675;;
85051;SDS011;75382;46.706;12.340;2024-01-15T04:38:47;6.725;;;1.75;;
85051;SDS011;75382;46.706;12.340;2024-01-15T04:39:48;7.75;;;2.5375;;
85051;SDS011;75382;46.706;12.340;2024-01-15T04:40:45;8.4875;;;2.55;;
85051;SDS011;75382;46.706;12.340;2024-01-15T04:41:45;9.05;;;2.1625;;
85051;SDS011;75382;46.706;12.340;2024-01-15T04:42:46;7.325;;;2.2624999999999997;;
85051;SDS011;75382;46.706;12.340;2024-01-15T04:43:47;6.6875;;;2.2249999999999996;;
85051;SDS011;75382;46.706;12.340;2024-01-15T04:44:45;6.4625;;;2.1875;;
85051;SDS011;75382;46.706;12.340;2024-01-15T04:45:45;6.525;;;2.0625;;
85051;SDS011;75382;46.706;12.340;2024-01-15T04:46:45;6.0875;;;1.625;;
85051;SDS011;75382;46.706;12.340;2024-01-15T04:47:45;6.225;;;2.1375;;
85051;SDS011;75382;46.706;12.340;2024-01-15T04:48:50;7.9;;;2.3249999999999997;;
85051;SDS011;75382;46.706;12.340;2024-01-15T04:49:45;8.15;;;1.9875;;
85051;SDS011;75382;46.706;12.340;2024-01-15T04:50:46;5.7;;;1.875;;
85051;SDS011;75382;46.706;12.340;2024-01-15T04:51:45;8.0125;;;2.0250000000000004;;
85051;SDS011;75382;46.706;12.340;2024-01-15T04:52:45;6.525;;;2.275;;
85051;SDS011;75382;46.706;12.340;2024-01-15T04:53:45;6.4624999999999995;;;2.125;;
85051;SDS011;75382;46.706;12.340;2024-01-15T04:54:45;7.1625;;;2.1125;;
85051;SDS011;75382;46.706;12.340;2024-01-15T04:55:45;10.6625;;;2.05;;
85051;SDS011;75382;46.706;12.340;2024-01-15T04:56:45;7.5375;;;2.175;;
85051;SDS011;75382;46.706;12.340;2024-01-15T04:57:46;6.887499999999999;;;2.3499999999999996;;
85051;SDS011;75382;46.706;12.340;2024-01-15T04:58:45;8.5875;;;2.1125000000000003;;
85051;SDS011;75382;46.706;12.340;2024-01-15T04:59:45;8.9375;;;2.45;;
85051;SDS011;75382;46.706;12.340;2024-01-15T05:00:46;8.3125;;;2.95;;
85051;SDS011;75382;46.706;12.340;2024-01-15T05:01:51;6.7;;;2.4625;;
85051;SDS011;75382;46.706;12.340;2024-01-15T05:02:46;7.7625;;;2.95;;
85051;SDS011;75382;46.706;12.340;2024-01-15T05:03:45;9.0375;;;2.6625;;
85051;SDS011;75382;46.706;12.340;2024-01-15T05:04:45;7.325;;;2.55;;
85051;SDS011;75382;46.706;12.340;2024-01-15T05:05:48;8.85;;;3.125;;
85051;SDS011;75382;46.706;12.340;2024-01-15T05:06:48;9.675;;;2.6875;;
85051;SDS011;75382;46.706;12.340;2024-01-15T05:07:45;8.087499999999999;;;2.8;;
85051;SDS011;75382;46.706;12.340;2024-01-15T05:08:45;7.824999999999999;;;2.575;;
85051;SDS011;75382;46.706;12.340;2024-01-15T05:09:45;13.1625;;;3.2;;
85051;SDS011;75382;46.706;12.340;2024-01-15T05:10:46;8.1375;;;2.5875;;
85051;SDS011;75382;46.706;12.340;2024-01-15T05:11:46;9.75;;;2.8375;;
85051;SDS011;75382;46.706;12.340;2024-01-15T05:12:45;9.7625;;;3.125;;
85051;SDS011;75382;46.706;12.340;2024-01-15T05:13:45;8.7375;;;2.8125;;
85051;SDS011;75382;46.706;12.340;2024-01-15T05:14:45;8.0375;;;2.75;;
85051;SDS011;75382;46.706;12.340;2024-01-15T05:15:45;11.125;;;3.2874999999999996;;
85051;SDS011;75382;46.706;12.340;2024-01-15T05:16:46;8.537500000000001;;;2.6;;
85051;SDS011;75382;46.706;12.340;2024-01-15T05:17:48;11.175;;;3.1750000000000003;;
85051;SDS011;75382;46.706;12.340;2024-01-15T05:18:47;9.6;;;3.3874999999999997;;
85051;SDS011;75382;46.706;12.340;2024-01-15T05:19:45;7.9125;;;2.9875;;
85051;SDS011;75382;46.706;12.340;2024-01-15T05:20:46;9.625;;;3.075;;